Wanda, Minnesota
Current Conditions -  °F | °C
As of 12:53 PM on Saturday 20 Dec 2014 (Local Time) from KRWF Reporting Station
Overcast Overcast  
Wind Chill: 22°   Ceiling: 1100
Heat Index: 32°   Visibility: 8mi
Dew Point: 28°   Wind: 14mph
Humidity: 85%   Direction: 190°S
Pressure: 30.07"   Gusts: NA
Location:  44.32°N, 95.21°W
Report Text: KRWF 201853Z AUTO 19012KT 8SM OVC011 00/M02 A3007 RMK AO2 SLP195 T00001022
Loading
Personal Weather Stations






























Interactive Weather Map New forecast layout! Learn more

10-Day Weather Forecast

Advertisements
Track Severe Weather on mobile